createdAt,value
2016-06-17T00:00:11.697Z,0
2016-06-17T00:01:11.733Z,0
2016-06-17T00:02:11.470Z,0
2016-06-17T00:03:11.817Z,0
2016-06-17T00:04:11.540Z,0
2016-06-17T00:05:11.903Z,0
2016-06-17T00:06:11.937Z,0
2016-06-17T00:07:11.815Z,0
2016-06-17T00:08:11.991Z,0
2016-06-17T00:09:11.744Z,0
2016-06-17T00:10:12.061Z,0
2016-06-17T00:11:12.142Z,0
2016-06-17T00:12:11.989Z,0
2016-06-17T00:13:12.180Z,0
2016-06-17T00:14:12.245Z,0
2016-06-17T00:15:12.249Z,0
2016-06-17T00:16:12.285Z,0
2016-06-17T00:17:12.163Z,0
2016-06-17T00:18:11.900Z,0
2016-06-17T00:19:12.248Z,0
2016-06-17T00:20:12.282Z,0
2016-06-17T00:21:12.474Z,0
2016-06-17T00:22:12.367Z,0
2016-06-17T00:23:12.559Z,0
2016-06-17T00:24:12.421Z,0
2016-06-17T00:25:12.628Z,0
2016-06-17T00:26:12.662Z,0
2016-06-17T00:27:12.541Z,0
2016-06-17T00:28:12.576Z,0
2016-06-17T00:29:12.626Z,0
2016-06-17T00:30:12.676Z,0
2016-06-17T00:31:12.695Z,0
2016-06-17T00:32:12.871Z,0
2016-06-17T00:33:12.905Z,0
2016-06-17T00:34:12.956Z,0
2016-06-17T00:35:12.850Z,0
2016-06-17T00:36:13.026Z,0
2016-06-17T00:37:12.763Z,0
2016-06-17T00:38:13.111Z,0
2016-06-17T00:39:12.989Z,0
2016-06-17T00:40:13.179Z,0
2016-06-17T00:41:13.043Z,0
2016-06-17T00:42:13.234Z,0
2016-06-17T00:43:13.128Z,0
2016-06-17T00:44:13.162Z,0
2016-06-17T00:45:13.352Z,0
2016-06-17T00:46:13.091Z,0
2016-06-17T00:47:13.423Z,0
2016-06-17T00:48:13.317Z,0
2016-06-17T00:49:13.507Z,0
2016-06-17T00:50:13.401Z,0
2016-06-17T00:51:13.576Z,0
2016-06-17T00:52:13.469Z,0
2016-06-17T00:53:13.488Z,0
2016-06-17T00:54:13.522Z,0
2016-06-17T00:55:13.728Z,0
2016-06-17T00:56:13.591Z,0
2016-06-17T00:57:13.798Z,0
2016-06-17T00:58:13.832Z,0
2016-06-17T00:59:13.867Z,0
2016-06-17T01:00:13.745Z,0
2016-06-17T01:01:13.795Z,0
2016-06-17T01:02:13.815Z,0
2016-06-17T01:03:13.865Z,0
2016-06-17T01:04:14.071Z,0
2016-06-17T01:05:13.965Z,0
2016-06-17T01:06:14.110Z,0
2016-06-17T01:07:14.160Z,0
2016-06-17T01:08:14.054Z,0
2016-06-17T01:09:14.229Z,0
2016-06-17T01:10:13.810Z,0
2016-06-17T01:11:14.143Z,0
2016-06-17T01:12:14.161Z,0
2016-06-17T01:13:14.211Z,0
2016-06-17T01:14:14.418Z,0
2016-06-17T01:15:14.141Z,0
2016-06-17T01:16:14.331Z,0
2016-06-17T01:17:14.381Z,0
2016-06-17T01:18:14.417Z,0
2016-06-17T01:19:14.466Z,0
2016-06-17T01:20:14.627Z,0
2016-06-17T01:21:14.521Z,0
2016-06-17T01:22:14.398Z,0
2016-06-17T01:23:14.419Z,0
2016-06-17T01:24:14.640Z,0
2016-06-17T01:25:14.816Z,0
2016-06-17T01:26:14.695Z,0
2016-06-17T01:27:14.729Z,0
2016-06-17T01:28:14.935Z,0
2016-06-17T01:29:14.814Z,0
2016-06-17T01:30:15.004Z,0
2016-06-17T01:31:14.883Z,0
2016-06-17T01:32:15.059Z,0
2016-06-17T01:33:15.108Z,0
2016-06-17T01:34:15.034Z,0
2016-06-17T01:35:15.179Z,0
2016-06-17T01:36:15.073Z,0
2016-06-17T01:37:15.264Z,0
2016-06-17T01:38:15.143Z,0
2016-06-17T01:39:15.176Z,0
2016-06-17T01:40:15.368Z,0
2016-06-17T01:41:15.403Z,0
2016-06-17T01:42:15.453Z,0
2016-06-17T01:43:15.488Z,0
2016-06-17T01:44:15.507Z,0
2016-06-17T01:45:15.228Z,0
2016-06-17T01:46:15.592Z,0
2016-06-17T01:47:15.643Z,0
2016-06-17T01:48:15.660Z,0
2016-06-17T01:49:15.555Z,0
2016-06-17T01:50:15.418Z,0
2016-06-17T01:51:15.624Z,0
2016-06-17T01:52:15.816Z,0
2016-06-17T01:53:15.850Z,0
2016-06-17T01:54:15.900Z,0
2016-06-17T01:55:15.920Z,0
2016-06-17T01:56:15.972Z,0
2016-06-17T01:57:16.024Z,0
2016-06-17T01:58:16.028Z,0
2016-06-17T01:59:15.940Z,0
2016-06-17T02:00:15.976Z,0
2016-06-17T02:01:15.839Z,0
2016-06-17T02:02:16.203Z,0
2016-06-17T02:03:16.222Z,0
2016-06-17T02:04:16.256Z,0
2016-06-17T02:05:16.307Z,0
2016-06-17T02:06:16.343Z,0
2016-06-17T02:07:16.222Z,0
2016-06-17T02:08:16.413Z,0
2016-06-17T02:09:16.463Z,0
2016-06-17T02:10:16.498Z,0
2016-06-17T02:11:16.533Z,0
2016-06-17T02:12:16.553Z,0
2016-06-17T02:13:16.586Z,0
2016-06-17T02:14:16.622Z,0
2016-06-17T02:15:16.656Z,0
2016-06-17T02:16:16.550Z,0
2016-06-17T02:17:16.726Z,0
2016-06-17T02:18:16.776Z,0
2016-06-17T02:19:16.514Z,0
2016-06-17T02:20:16.705Z,0
2016-06-17T02:21:16.725Z,0
2016-06-17T02:22:16.930Z,0
2016-06-17T02:23:16.809Z,0
2016-06-17T02:24:16.985Z,0
2016-06-17T02:25:16.738Z,0
2016-06-17T02:26:17.070Z,0
2016-06-17T02:27:17.121Z,0
2016-06-17T02:28:17.138Z,0
2016-06-17T02:29:17.174Z,0
2016-06-17T02:30:17.224Z,0
2016-06-17T02:31:17.102Z,0
2016-06-17T02:32:17.310Z,0
2016-06-17T02:33:17.327Z,0
2016-06-17T02:34:17.206Z,0
2016-06-17T02:35:17.398Z,0
2016-06-17T02:36:17.433Z,0
2016-06-17T02:37:17.310Z,0
2016-06-17T02:38:17.345Z,0
2016-06-17T02:39:17.552Z,0
2016-06-17T02:40:17.430Z,0
2016-06-17T02:41:17.653Z,0
2016-06-17T02:42:17.500Z,0
2016-06-17T02:43:17.534Z,0
2016-06-17T02:44:17.554Z,0
2016-06-17T02:45:17.620Z,0
2016-06-17T02:46:17.654Z,0
2016-06-17T02:47:17.845Z,0
2016-06-17T02:48:17.880Z,0
2016-06-17T02:49:17.899Z,0
2016-06-17T02:50:17.793Z,0
2016-06-17T02:51:17.671Z,0
2016-06-17T02:52:18.034Z,0
2016-06-17T02:53:18.085Z,0
2016-06-17T02:54:18.104Z,0
2016-06-17T02:55:18.139Z,0
2016-06-17T02:56:17.860Z,0
2016-06-17T02:57:18.208Z,0
2016-06-17T02:58:18.242Z,0
2016-06-17T02:59:18.278Z,0
2016-06-17T03:00:18.156Z,0
2016-06-17T03:01:18.331Z,0
2016-06-17T03:02:18.381Z,0
2016-06-17T03:03:18.260Z,0
2016-06-17T03:04:18.451Z,0
2016-06-17T03:05:18.502Z,0
2016-06-17T03:06:18.380Z,0
2016-06-17T03:07:18.586Z,0
2016-06-17T03:08:18.449Z,0
2016-06-17T03:09:18.499Z,0
2016-06-17T03:10:18.675Z,0
2016-06-17T03:11:18.709Z,5
2016-06-17T03:12:18.588Z,5
2016-06-17T03:13:18.794Z,5
2016-06-17T03:14:18.501Z,5
2016-06-17T03:15:18.864Z,5
2016-06-17T03:16:18.758Z,5
2016-06-17T03:17:19.590Z,5
2016-06-17T03:18:18.811Z,5
2016-06-17T03:19:18.706Z,5
2016-06-17T03:20:19.037Z,5
2016-06-17T03:21:19.072Z,5
2016-06-17T03:22:18.998Z,10
2016-06-17T03:23:18.845Z,10
2016-06-17T03:24:19.035Z,10
2016-06-17T03:25:19.071Z,10
2016-06-17T03:26:19.261Z,10
2016-06-17T03:27:19.296Z,10
2016-06-17T03:28:19.331Z,10
2016-06-17T03:29:19.366Z,10
2016-06-17T03:30:19.260Z,15
2016-06-17T03:31:19.450Z,15
2016-06-17T03:32:19.470Z,15
2016-06-17T03:33:19.504Z,15
2016-06-17T03:34:19.554Z,15
2016-06-17T03:35:19.606Z,15
2016-06-17T03:36:19.623Z,15
2016-06-17T03:37:19.659Z,15
2016-06-17T03:38:19.709Z,15
2016-06-17T03:39:19.588Z,15
2016-06-17T03:40:19.762Z,15
2016-06-17T03:41:19.657Z,15
2016-06-17T03:42:19.847Z,20
2016-06-17T03:43:19.883Z,20
2016-06-17T03:44:19.762Z,20
2016-06-17T03:45:19.952Z,20
2016-06-17T03:46:19.987Z,20
2016-06-17T03:47:20.022Z,20
2016-06-17T03:48:20.057Z,20
2016-06-17T03:49:19.950Z,25
2016-06-17T03:50:19.516Z,25
2016-06-17T03:51:20.161Z,25
2016-06-17T03:52:20.054Z,25
2016-06-17T03:53:20.105Z,25
2016-06-17T03:54:20.124Z,30
2016-06-17T03:55:20.330Z,30
2016-06-17T03:56:20.365Z,30
2016-06-17T03:57:20.229Z,35
2016-06-17T03:58:20.435Z,35
2016-06-17T03:59:20.469Z,40
2016-06-17T04:00:20.504Z,40
2016-06-17T04:01:20.413Z,45
2016-06-17T04:02:20.574Z,45
2016-06-17T04:03:20.608Z,45
2016-06-17T04:04:20.642Z,50
2016-06-17T04:05:20.396Z,50
2016-06-17T04:06:20.713Z,55
2016-06-17T04:07:20.763Z,55
2016-06-17T04:08:20.797Z,60
2016-06-17T04:09:20.676Z,60
2016-06-17T04:10:20.554Z,55
2016-06-17T04:11:20.745Z,50
2016-06-17T04:12:20.939Z,50
2016-06-17T04:13:20.977Z,65
2016-06-17T04:14:21.047Z,70
2016-06-17T04:15:20.913Z,80
2016-06-17T04:16:21.091Z,80
2016-06-17T04:17:21.128Z,85
2016-06-17T04:18:21.179Z,90
2016-06-17T04:19:21.059Z,90
2016-06-17T04:20:21.094Z,90
2016-06-17T04:21:21.302Z,90
2016-06-17T04:22:21.182Z,90
2016-06-17T04:23:21.373Z,100
2016-06-17T04:24:21.408Z,105
2016-06-17T04:25:21.428Z,115
2016-06-17T04:26:21.478Z,130
2016-06-17T04:27:21.357Z,135
2016-06-17T04:28:21.392Z,135
2016-06-17T04:29:21.427Z,145
2016-06-17T04:30:21.306Z,150
2016-06-17T04:31:21.653Z,155
2016-06-17T04:32:21.705Z,160
2016-06-17T04:33:21.738Z,170
2016-06-17T04:34:21.758Z,160
2016-06-17T04:35:21.793Z,200
2016-06-17T04:36:21.687Z,205
2016-06-17T04:37:21.564Z,115
2016-06-17T04:38:21.615Z,110
2016-06-17T04:39:21.962Z,110
2016-06-17T04:40:21.997Z,105
2016-06-17T04:41:22.033Z,105
2016-06-17T04:42:21.910Z,105
2016-06-17T04:43:22.101Z,105
2016-06-17T04:44:22.151Z,105
2016-06-17T04:45:22.015Z,105
2016-06-17T04:46:21.909Z,110
2016-06-17T04:47:21.944Z,115
2016-06-17T04:48:21.962Z,110
2016-06-17T04:49:22.325Z,115
2016-06-17T04:50:22.359Z,115
2016-06-17T04:51:22.395Z,130
2016-06-17T04:52:22.461Z,150
2016-06-17T04:53:22.167Z,145
2016-06-17T04:54:22.514Z,150
2016-06-17T04:55:22.534Z,150
2016-06-17T04:56:22.569Z,145
2016-06-17T04:57:22.447Z,145
2016-06-17T04:58:22.654Z,145
2016-06-17T04:59:22.687Z,145
2016-06-17T05:00:22.582Z,140
2016-06-17T05:01:22.773Z,150
2016-06-17T05:02:22.667Z,160
2016-06-17T05:03:22.859Z,165
2016-06-17T05:04:22.721Z,175
2016-06-17T05:05:22.771Z,190
2016-06-17T05:06:22.962Z,220
2016-06-17T05:07:22.841Z,340
2016-06-17T05:08:22.876Z,380
2016-06-17T05:09:23.067Z,235
2016-06-17T05:10:23.100Z,425
2016-06-17T05:11:22.979Z,300
2016-06-17T05:12:23.015Z,255
2016-06-17T05:13:23.064Z,190
2016-06-17T05:14:23.100Z,180
2016-06-17T05:15:23.150Z,175
2016-06-17T05:16:23.356Z,165
2016-06-17T05:17:23.375Z,165
2016-06-17T05:18:23.253Z,165
2016-06-17T05:19:23.445Z,165
2016-06-17T05:20:23.496Z,165
2016-06-17T05:21:23.545Z,165
2016-06-17T05:22:23.424Z,165
2016-06-17T05:23:23.442Z,160
2016-06-17T05:24:23.477Z,165
2016-06-17T05:25:23.560Z,170
2016-06-17T05:26:25.766Z,170
2016-06-17T05:27:23.598Z,170
2016-06-17T05:28:23.648Z,170
2016-06-17T05:29:23.839Z,175
2016-06-17T05:30:23.873Z,190
2016-06-17T05:31:23.768Z,305
2016-06-17T05:32:23.959Z,260
2016-06-17T05:33:23.852Z,235
2016-06-17T05:34:23.872Z,210
2016-06-17T05:35:24.062Z,195
2016-06-17T05:36:24.113Z,195
2016-06-17T05:37:23.976Z,200
2016-06-17T05:38:24.167Z,210
2016-06-17T05:39:24.233Z,200
2016-06-17T05:40:24.267Z,205
2016-06-17T05:41:24.302Z,210
2016-06-17T05:42:24.321Z,220
2016-06-17T05:43:24.075Z,225
2016-06-17T05:44:23.953Z,220
2016-06-17T05:45:24.300Z,230
2016-06-17T05:46:24.475Z,205
2016-06-17T05:47:24.526Z,205
2016-06-17T05:48:24.560Z,210
2016-06-17T05:49:24.611Z,205
2016-06-17T05:50:24.646Z,220
2016-06-17T05:51:24.539Z,215
2016-06-17T05:52:24.715Z,205
2016-06-17T05:53:24.609Z,190
2016-06-17T05:54:24.785Z,175
2016-06-17T05:55:24.834Z,175
2016-06-17T05:56:24.713Z,150
2016-06-17T05:57:24.748Z,120
2016-06-17T05:58:24.954Z,95
2016-06-17T05:59:24.834Z,80
2016-06-17T06:00:24.867Z,80
2016-06-17T06:01:25.059Z,80
2016-06-17T06:02:24.797Z,75
2016-06-17T06:03:25.159Z,100
2016-06-17T06:04:25.194Z,120
2016-06-17T06:05:25.212Z,115
2016-06-17T06:06:25.263Z,100
2016-06-17T06:07:25.126Z,85
2016-06-17T06:08:25.021Z,100
2016-06-17T06:09:25.211Z,140
2016-06-17T06:10:25.246Z,150
2016-06-17T06:11:25.296Z,185
2016-06-17T06:12:25.472Z,220
2016-06-17T06:13:25.382Z,200
2016-06-17T06:14:25.557Z,150
2016-06-17T06:15:25.591Z,130
2016-06-17T06:16:25.626Z,135
2016-06-17T06:17:25.520Z,170
2016-06-17T06:18:25.383Z,155
2016-06-17T06:19:25.747Z,195
2016-06-17T06:20:25.624Z,220
2016-06-17T06:21:25.816Z,215
2016-06-17T06:22:25.849Z,185
2016-06-17T06:23:25.900Z,155
2016-06-17T06:24:25.935Z,155
2016-06-17T06:25:25.954Z,160
2016-06-17T06:26:25.692Z,120
2016-06-17T06:27:26.039Z,100
2016-06-17T06:28:25.934Z,95
2016-06-17T06:29:26.129Z,115
2016-06-17T06:30:26.170Z,125
2016-06-17T06:31:26.209Z,145
2016-06-17T06:32:26.249Z,145
2016-06-17T06:33:26.148Z,150
2016-06-17T06:34:26.340Z,180
2016-06-17T06:35:26.220Z,200
2016-06-17T06:36:26.256Z,190
2016-06-17T06:37:26.448Z,190
2016-06-17T06:38:26.516Z,185
2016-06-17T06:39:26.520Z,185
2016-06-17T06:40:26.557Z,205
2016-06-17T06:41:26.607Z,245
2016-06-17T06:42:26.502Z,245
2016-06-17T06:43:26.678Z,215
2016-06-17T06:44:26.572Z,180
2016-06-17T06:45:26.482Z,150
2016-06-17T06:46:26.797Z,130
2016-06-17T06:47:26.833Z,130
2016-06-17T06:48:26.742Z,130
2016-06-17T06:49:26.776Z,140
2016-06-17T06:50:26.952Z,140
2016-06-17T06:51:27.002Z,140
2016-06-17T06:52:26.881Z,165
2016-06-17T06:53:27.088Z,185
2016-06-17T06:54:26.950Z,200
2016-06-17T06:55:27.142Z,195
2016-06-17T06:56:27.035Z,190
2016-06-17T06:57:27.226Z,180
2016-06-17T06:58:27.246Z,175
2016-06-17T06:59:27.155Z,150
2016-06-17T07:00:27.190Z,130
2016-06-17T07:01:27.381Z,100
2016-06-17T07:02:27.259Z,80
2016-06-17T07:03:27.309Z,75
2016-06-17T07:04:27.328Z,70
2016-06-17T07:05:27.520Z,65
2016-06-17T07:06:27.414Z,55
2016-06-17T07:07:27.604Z,55
2016-06-17T07:08:27.327Z,50
2016-06-17T07:09:27.689Z,50
2016-06-17T07:10:27.552Z,65
2016-06-17T07:11:27.619Z,100
2016-06-17T07:12:27.809Z,125
2016-06-17T07:13:27.376Z,140
2016-06-17T07:14:27.863Z,140
2016-06-17T07:15:27.897Z,150
2016-06-17T07:16:27.933Z,165
2016-06-17T07:17:27.984Z,185
2016-06-17T07:18:28.017Z,195
2016-06-17T07:19:27.897Z,180
2016-06-17T07:20:28.086Z,140
2016-06-17T07:21:28.137Z,100
2016-06-17T07:22:28.172Z,90
2016-06-17T07:23:28.239Z,90
2016-06-17T07:24:28.242Z,80
2016-06-17T07:25:28.136Z,75
2016-06-17T07:26:28.170Z,85
2016-06-17T07:27:28.205Z,95
2016-06-17T07:28:28.397Z,110
2016-06-17T07:29:28.336Z,145
2016-06-17T07:30:28.357Z,195
2016-06-17T07:31:29.171Z,220
2016-06-17T07:32:28.253Z,240
2016-06-17T07:33:28.570Z,240
2016-06-17T07:34:28.621Z,230
2016-06-17T07:35:28.514Z,245
2016-06-17T07:36:28.549Z,250
2016-06-17T07:37:28.739Z,265
2016-06-17T07:38:28.774Z,300
2016-06-17T07:39:28.652Z,335
2016-06-17T07:40:28.703Z,390
2016-06-17T07:41:28.879Z,395
2016-06-17T07:42:28.928Z,415
2016-06-17T07:43:28.963Z,390
2016-06-17T07:44:29.014Z,350
2016-06-17T07:45:29.048Z,320
2016-06-17T07:46:28.943Z,295
2016-06-17T07:47:29.133Z,270
2016-06-17T07:48:28.700Z,270
2016-06-17T07:49:29.203Z,320
2016-06-17T07:50:29.487Z,335
2016-06-17T07:51:29.132Z,295
2016-06-17T07:52:29.151Z,210
2016-06-17T07:53:29.045Z,200
2016-06-17T07:54:29.236Z,210
2016-06-17T07:55:29.427Z,225
2016-06-17T07:56:29.321Z,255
2016-06-17T07:57:29.356Z,290
2016-06-17T07:58:29.375Z,300
2016-06-17T07:59:29.597Z,290
2016-06-17T08:05:01.802Z,125
2016-06-17T08:05:54.963Z,115
2016-06-17T08:06:55.622Z,105
2016-06-17T08:08:55.738Z,105
2016-06-17T08:09:55.726Z,110
2016-06-17T08:10:57.480Z,110
2016-06-17T08:11:55.234Z,115
2016-06-17T08:12:56.548Z,110
2016-06-17T08:13:56.474Z,110
2016-06-17T08:14:54.711Z,110
2016-06-17T08:15:57.168Z,115
2016-06-17T08:16:56.593Z,120
2016-06-17T08:17:56.644Z,120
2016-06-17T08:18:56.070Z,125
2016-06-17T08:19:56.104Z,120
2016-06-17T08:20:56.154Z,115
2016-06-17T08:21:57.471Z,110
2016-06-17T08:22:56.239Z,105
2016-06-17T08:23:55.696Z,100
2016-06-17T08:24:56.903Z,100
2016-06-17T08:25:55.766Z,100
2016-06-17T08:26:57.003Z,100
2016-06-17T08:27:55.195Z,100
2016-06-17T08:28:56.463Z,105
2016-06-17T08:29:55.858Z,110
2016-06-17T08:30:57.767Z,115
2016-06-17T08:31:57.162Z,120
2016-06-17T08:32:57.822Z,120
2016-06-17T08:33:56.669Z,120
2016-06-17T08:34:57.345Z,125
2016-06-17T08:35:58.144Z,120
2016-06-17T08:36:56.773Z,115
2016-06-17T08:37:56.839Z,105
2016-06-17T08:38:56.827Z,95
2016-06-17T08:39:57.487Z,95
2016-06-17T08:40:56.927Z,100
2016-06-17T08:41:56.946Z,100
2016-06-17T08:42:58.216Z,95
2016-06-17T08:43:57.015Z,100
2016-06-17T08:44:21.750Z,150
2016-06-17T08:44:32.359Z,165
2016-06-17T08:46:03.241Z,195
2016-06-17T08:46:33.101Z,205
2016-06-17T08:47:31.887Z,220
2016-06-17T08:48:31.921Z,235
2016-06-17T08:49:32.581Z,260
2016-06-17T08:50:32.600Z,265
2016-06-17T08:51:32.026Z,275
2016-06-17T08:52:32.733Z,275
2016-06-17T08:53:32.096Z,265
2016-06-17T08:54:33.348Z,245
2016-06-17T08:55:32.180Z,225
2016-06-17T08:56:32.216Z,215
2016-06-17T08:57:32.859Z,220
2016-06-17T08:58:32.286Z,235
2016-06-17T08:59:32.351Z,245
2016-06-17T09:00:33.058Z,260
2016-06-17T09:01:32.405Z,265
2016-06-17T09:02:33.034Z,270
2016-06-17T09:03:33.709Z,280
2016-06-17T09:04:33.728Z,285
2016-06-17T09:05:33.763Z,285
2016-06-17T09:06:33.813Z,290
2016-06-17T09:07:33.254Z,290
2016-06-17T09:08:32.055Z,295
2016-06-17T09:16:32.923Z,295
2016-06-17T09:17:32.365Z,305
2016-06-17T09:24:30.722Z,300
2016-06-17T09:25:30.772Z,285
2016-06-17T09:26:30.182Z,260
2016-06-17T09:27:30.827Z,250
2016-06-17T09:28:30.877Z,305
2016-06-17T09:29:30.303Z,375
2016-06-17T09:30:30.337Z,435
2016-06-17T09:31:31.012Z,490
2016-06-17T09:32:30.422Z,705
2016-06-17T09:33:31.676Z,685
2016-06-17T09:34:29.898Z,765
2016-06-17T09:35:30.543Z,855
2016-06-17T09:36:30.155Z,630
2016-06-17T09:37:30.049Z,700
2016-06-17T09:38:30.068Z,775
2016-06-17T09:39:31.322Z,700
2016-06-17T09:40:31.403Z,710
2016-06-17T09:41:31.580Z,845
2016-06-17T09:42:30.850Z,640
2016-06-17T09:43:30.870Z,635
2016-06-17T09:44:31.516Z,635
2016-06-17T09:45:30.927Z,710
2016-06-17T09:46:30.994Z,635
2016-06-17T09:47:32.232Z,825
2016-06-17T09:48:31.688Z,940
2016-06-17T09:49:31.115Z,1525
2016-06-17T09:50:31.196Z,1655
2016-06-17T09:51:31.200Z,1825
2016-06-17T09:52:31.235Z,1200
2016-06-17T09:53:30.645Z,1845
2016-06-17T09:54:31.945Z,1820
2016-06-17T09:55:31.964Z,1225
2016-06-17T09:56:31.405Z,1460
2016-06-17T09:57:32.048Z,560
2016-06-17T09:58:32.087Z,335
2016-06-17T09:59:32.155Z,250
2016-06-17T10:00:32.191Z,170
2016-06-17T10:01:32.230Z,110
2016-06-17T10:02:32.360Z,95
2016-06-17T10:03:31.724Z,80
2016-06-17T10:04:32.370Z,75
2016-06-17T10:05:31.811Z,65
2016-06-17T10:06:31.846Z,70
2016-06-17T10:07:32.491Z,75
2016-06-17T10:08:31.338Z,85
2016-06-17T10:09:32.608Z,90
2016-06-17T10:10:32.034Z,90
2016-06-17T10:11:32.070Z,80
2016-06-17T10:12:31.494Z,60
2016-06-17T10:13:33.358Z,50
2016-06-17T10:14:31.564Z,55
2016-06-17T10:15:33.460Z,80
2016-06-17T10:16:32.870Z,120
2016-06-17T10:17:32.311Z,130
2016-06-17T10:18:31.737Z,135
2016-06-17T10:19:33.038Z,120
2016-06-17T10:20:33.058Z,110
2016-06-17T10:21:32.499Z,95
2016-06-17T10:22:31.925Z,115
2016-06-17T10:23:32.554Z,160
2016-06-17T10:24:32.589Z,180
2016-06-17T10:25:32.655Z,165
2016-06-17T10:26:33.267Z,165
2016-06-17T10:27:33.318Z,195
2016-06-17T10:28:32.760Z,200
2016-06-17T10:29:33.419Z,175
2016-06-17T10:30:33.469Z,145
2016-06-17T10:31:33.473Z,110
2016-06-17T10:32:32.913Z,85
2016-06-17T10:33:32.947Z,60
2016-06-17T10:34:32.389Z,35
2016-06-17T10:35:32.409Z,30
2016-06-17T10:36:33.677Z,35
2016-06-17T10:37:33.744Z,40
2016-06-17T10:38:33.137Z,45
2016-06-17T10:39:33.813Z,50
2016-06-17T10:40:33.863Z,45
2016-06-17T10:41:33.272Z,55
2016-06-17T10:42:33.308Z,75
2016-06-17T10:43:33.327Z,80
2016-06-17T10:44:33.408Z,80
2016-06-17T10:45:34.646Z,85
2016-06-17T10:46:32.853Z,95
2016-06-17T10:47:34.106Z,110
2016-06-17T10:48:34.749Z,125
2016-06-17T10:49:34.176Z,165
2016-06-17T10:50:34.227Z,215
2016-06-17T10:51:33.653Z,285
2016-06-17T10:52:33.688Z,370
2016-06-17T10:53:33.114Z,405
2016-06-17T10:54:33.150Z,450
2016-06-17T10:55:34.403Z,505
2016-06-17T10:56:34.547Z,510
2016-06-17T10:57:33.253Z,500
2016-06-17T10:58:34.522Z,535
2016-06-17T10:59:34.573Z,555
2016-06-17T11:00:34.592Z,605
2016-06-17T11:01:34.017Z,725
2016-06-17T11:02:34.068Z,790
2016-06-17T11:03:34.087Z,665
2016-06-17T11:04:34.168Z,625
2016-06-17T11:05:34.173Z,660
2016-06-17T11:06:35.456Z,595
2016-06-17T11:07:35.473Z,500
2016-06-17T11:08:34.304Z,595
2016-06-17T11:09:34.368Z,590
2016-06-17T11:10:33.762Z,470
2016-06-17T11:11:35.031Z,605
2016-06-17T11:12:35.065Z,750
2016-06-17T11:13:33.271Z,640
2016-06-17T11:14:35.149Z,455
2016-06-17T11:15:35.214Z,540
2016-06-17T11:16:34.608Z,550
2016-06-17T11:17:35.862Z,475
2016-06-17T11:18:35.912Z,350
2016-06-17T11:19:35.338Z,380
2016-06-17T11:20:34.170Z,690
2016-06-17T11:21:34.813Z,495
2016-06-17T11:22:36.051Z,680
2016-06-17T11:23:34.883Z,875
2016-06-17T11:24:34.949Z,930
2016-06-17T11:25:35.578Z,610
2016-06-17T11:26:36.221Z,560
2016-06-17T11:27:35.677Z,520
2016-06-17T11:28:35.713Z,335
2016-06-17T11:29:35.122Z,250
2016-06-17T11:30:35.782Z,175
2016-06-17T11:31:35.285Z,175
2016-06-17T11:32:35.272Z,200
2016-06-17T11:33:34.684Z,200
2016-06-17T11:34:35.952Z,250
2016-06-17T11:35:34.768Z,350
2016-06-17T11:36:35.428Z,630
2016-06-17T11:37:35.509Z,1090
2016-06-17T11:38:35.513Z,860
2016-06-17T11:39:36.205Z,635
2016-06-17T11:40:36.832Z,500
2016-06-17T11:41:36.242Z,385
2016-06-17T11:42:35.056Z,310
2016-06-17T11:43:35.700Z,270
2016-06-17T11:44:35.126Z,310
2016-06-17T11:45:35.207Z,410
2016-06-17T11:46:35.210Z,450
2016-06-17T11:47:35.868Z,470
2016-06-17T11:48:35.919Z,450
2016-06-17T11:49:35.953Z,460
2016-06-17T11:50:35.425Z,590
2016-06-17T11:51:35.429Z,680
2016-06-17T11:52:34.854Z,735
2016-06-17T11:53:36.123Z,945
2016-06-17T11:54:35.549Z,960
2016-06-17T11:55:36.193Z,1125
2016-06-17T11:56:36.852Z,1045
2016-06-17T11:57:36.294Z,940
2016-06-17T11:58:36.922Z,655
2016-06-17T11:59:35.753Z,600
2016-06-17T12:00:37.023Z,1520
2016-06-17T12:01:37.073Z,1925
2016-06-17T12:02:35.280Z,2590
2016-06-17T12:03:35.924Z,930
2016-06-17T12:04:37.193Z,1900
2016-06-17T12:05:36.602Z,855
2016-06-17T12:06:36.669Z,750
2016-06-17T12:07:36.734Z,695
2016-06-17T12:08:36.754Z,895
2016-06-17T12:09:37.429Z,2345
2016-06-17T12:10:36.839Z,695
2016-06-17T12:11:36.295Z,595
2016-06-17T12:12:38.142Z,490
2016-06-17T12:13:36.974Z,490
2016-06-17T12:14:37.634Z,370
2016-06-17T12:15:38.266Z,355
2016-06-17T12:16:36.507Z,455
2016-06-17T12:17:37.169Z,475
2016-06-17T12:18:37.207Z,470
2016-06-17T12:19:37.242Z,475
2016-06-17T12:20:37.905Z,455
2016-06-17T12:21:38.002Z,475
2016-06-17T12:22:37.992Z,515
2016-06-17T12:23:38.636Z,665
2016-06-17T12:24:38.125Z,2015
2016-06-17T12:25:37.519Z,2470
2016-06-17T12:26:38.180Z,1305
2016-06-17T12:27:37.605Z,575
2016-06-17T12:28:37.672Z,790
2016-06-17T12:29:38.301Z,1560
2016-06-17T12:30:38.351Z,1515
2016-06-17T12:31:38.386Z,1135
2016-06-17T12:32:38.419Z,1335
2016-06-17T12:33:38.486Z,920
2016-06-17T12:34:37.912Z,950
2016-06-17T12:35:38.571Z,385
2016-06-17T12:36:38.012Z,470
2016-06-17T12:37:39.312Z,430
2016-06-17T12:38:36.878Z,440
2016-06-17T12:39:38.132Z,420
2016-06-17T12:40:38.198Z,400
2016-06-17T12:41:38.842Z,405
2016-06-17T12:42:39.501Z,415
2016-06-17T12:43:38.943Z,405
2016-06-17T12:44:38.977Z,390
2016-06-17T12:45:37.825Z,380
2016-06-17T12:46:39.671Z,375
2016-06-17T12:47:39.128Z,355
2016-06-17T12:48:38.553Z,340
2016-06-17T12:49:37.979Z,335
2016-06-17T12:50:39.232Z,335
2016-06-17T12:51:39.299Z,330
2016-06-17T12:52:39.942Z,365
2016-06-17T12:53:39.384Z,425
2016-06-17T12:54:39.418Z,480
2016-06-17T12:55:38.249Z,510
2016-06-17T12:56:38.894Z,515
2016-06-17T12:57:38.913Z,500
2016-06-17T12:58:38.963Z,465
2016-06-17T12:59:38.420Z,450
2016-06-17T13:00:39.079Z,430
2016-06-17T13:01:39.723Z,425
2016-06-17T13:02:39.165Z,430
2016-06-17T13:03:39.184Z,410
2016-06-17T13:04:39.234Z,400
2016-06-17T13:05:39.909Z,390
2016-06-17T13:06:39.319Z,390
2016-06-17T13:07:39.368Z,430
2016-06-17T13:08:40.029Z,525
2016-06-17T13:09:39.439Z,755
2016-06-17T13:10:39.489Z,650
2016-06-17T13:11:40.133Z,900
2016-06-17T13:12:39.574Z,885
2016-06-17T13:13:39.609Z,990
2016-06-17T13:14:40.284Z,600
2016-06-17T13:15:40.287Z,555
2016-06-17T13:16:40.322Z,550
2016-06-17T13:17:40.388Z,525
2016-06-17T13:18:40.423Z,550
2016-06-17T13:19:41.082Z,875
2016-06-17T13:20:39.305Z,765
2016-06-17T13:21:39.340Z,735
2016-06-17T13:22:40.046Z,700
2016-06-17T13:23:41.034Z,1370
2016-06-17T13:24:40.694Z,695
2016-06-17T13:25:40.119Z,510
2016-06-17T13:26:40.764Z,460
2016-06-17T13:27:40.204Z,445
2016-06-17T13:28:41.677Z,405
2016-06-17T13:29:40.898Z,365
2016-06-17T13:30:39.106Z,335
2016-06-17T13:31:39.764Z,330
2016-06-17T13:32:41.018Z,330
2016-06-17T13:33:41.053Z,330
2016-06-17T13:34:39.900Z,325
2016-06-17T13:35:41.154Z,315
2016-06-17T13:36:40.579Z,330
2016-06-17T13:37:41.223Z,335
2016-06-17T13:38:41.273Z,330
2016-06-17T13:39:41.323Z,315
2016-06-17T13:40:40.749Z,305
2016-06-17T13:41:41.394Z,280
2016-06-17T13:42:41.505Z,255
2016-06-17T13:43:41.479Z,245
2016-06-17T13:44:41.512Z,235
2016-06-17T13:45:40.345Z,215
2016-06-17T13:46:40.394Z,195
2016-06-17T13:47:42.242Z,175
2016-06-17T13:48:41.699Z,150
2016-06-17T13:49:40.483Z,120
2016-06-17T13:50:41.159Z,120
2016-06-17T13:51:41.803Z,145
2016-06-17T13:52:41.243Z,180
2016-06-17T13:53:41.888Z,205
2016-06-17T13:54:41.328Z,205
2016-06-17T13:55:41.348Z,215
2016-06-17T13:56:41.993Z,220
2016-06-17T13:57:41.436Z,215
2016-06-17T13:58:41.488Z,200
2016-06-17T13:59:41.525Z,185
2016-06-17T14:00:40.953Z,175
2016-06-17T14:01:42.225Z,165
2016-06-17T14:02:41.650Z,155
2016-06-17T14:03:41.075Z,145
2016-06-17T14:04:42.346Z,130
2016-06-17T14:05:42.975Z,115
2016-06-17T14:06:42.432Z,105
2016-06-17T14:07:42.780Z,110
2016-06-17T14:08:41.909Z,110
2016-06-17T14:09:42.538Z,115
2016-06-17T14:10:41.979Z,125
2016-06-17T14:11:42.015Z,140
2016-06-17T14:12:42.080Z,155
2016-06-17T14:13:42.709Z,175
2016-06-17T14:14:42.134Z,190
2016-06-17T14:15:42.168Z,210
2016-06-17T14:16:42.812Z,225
2016-06-17T14:17:42.238Z,235
2016-06-17T14:18:41.679Z,245
2016-06-17T14:19:42.339Z,250
2016-06-17T14:20:41.763Z,255